Sunday, January 20, 2019, 7:15 AM GMT
Back to Local

CWRK, Bancroft Automatic Weather Reporting System

Location: , , Canada Lat: 45.067
Local Time: 7:15 AM GMT ( 7:15 GMT) Lon: -77.867
Time Zone: GMT Elev: 1085 ft

Show me the last for .
Show Decoded

2019-01-20 07:00 METAR CWRK 200700Z AUTO 01007KT M22/M26 RMK AO1 3PAST HR SOG 26 6033 SLP161
                 P0001 T12241256 50003 =
2019-01-20 06:00 METAR CWRK 200600Z AUTO 02007KT M23/M26 RMK AO1 2PAST HR SOG 24 8035 SLP171
                 P0001 T12261257 50007 =
2019-01-20 05:00 METAR CWRK 200500Z AUTO 03005KT M22/M26 RMK AO1 2PAST HR SOG 23 6037 SLP186
                 P0001 T12241258 50004 =
2019-01-20 04:00 METAR CWRK 200400Z AUTO 03006KT M23/M26 RMK AO1 SOG 22 7038 SLP197 T12261260
                 50002 =
2019-01-20 03:00 METAR CWRK 200300Z AUTO 04006KT M23/M27 RMK AO1 SOG 22 8034 SLP209 T12291266
                 50002 =
2019-01-20 02:00 METAR CWRK 200200Z AUTO 03005KT M23/M27 RMK AO1 2PAST HR SOG 22 8020 SLP226
                 P0001 T12321271 50002 =
2019-01-20 01:00 METAR CWRK 200100Z AUTO 04005KT M23/M27 RMK AO1 SOG 22 8013 SLP238 T12251274 =
2019-01-20 00:00 METAR CWRK 200000Z AUTO 03006KT M23/M27 RMK AO1 SOG 22 6015 SLP245 T12311269
                 50004 =
2019-01-19 23:00 METAR CWRK 192300Z AUTO 03005KT M23/M26 RMK AO1 SOG 22 6021 SLP246 T12251263
                 50004 =
2019-01-19 22:00 METAR CWRK 192200Z AUTO 04004KT M22/M26 RMK AO1 2PAST HR SOG 22 8020 SLP250
                 P0001 T12201258 50004 =
2019-01-19 21:00 METAR CWRK 192100Z AUTO 03005KT M22/M26 RMK AO1 2PAST HR SOG 22 8012 SLP259
                 P0001 T12171260 50002 =
2019-01-19 20:00 METAR CWRK 192000Z AUTO 03005KT M22/M28 RMK AO1 SOG 22 6017 SLP267 T12151282 =
2019-01-19 19:00 METAR CWRK 191900Z AUTO 04005KT M22/M30 RMK AO1 SOG 22 6029 SLP270 T12191296 =
2019-01-19 18:00 METAR CWRK 191800Z AUTO 03004KT M23/M30 RMK AO1 SOG 22 8035 SLP271 T12261299 =
2019-01-19 17:00 METAR CWRK 191700Z AUTO 04005KT M23/M30 RMK AO1 SOG 22 8026 SLP284 T12341299 =
2019-01-19 16:00 METAR CWRK 191600Z AUTO 05004KT M24/M30 RMK AO1 SOG 22 8010 SLP299 T12411304 =
2019-01-19 15:00 METAR CWRK 191500Z AUTO 06005KT M25/M30 RMK AO1 SOG 22 0006 SLP305 T12461302 =
2019-01-19 14:00 METAR CWRK 191400Z AUTO 03004KT M25/M30 RMK AO1 SOG 22 1020 SLP308 T12501301 =
2019-01-19 13:00 METAR CWRK 191300Z AUTO 02003KT M25/M30 RMK AO1 SOG 22 3017 SLP306 T12471297 =
2019-01-19 12:00 METAR CWRK 191200Z AUTO 02004KT M24/M29 RMK AO1 SOG 22 3005 SLP294 T12441291 =
2019-01-19 11:00 METAR CWRK 191100Z AUTO 02005KT M24/M29 RMK AO1 SOG 22 7007 SLP283 T12411286 =
2019-01-19 10:00 METAR CWRK 191000Z AUTO 03004KT M24/M28 RMK AO1 SOG 22 0004 SLP284 T12361280 =
2019-01-19 09:00 METAR CWRK 190900Z AUTO 04005KT M23/M28 RMK AO1 SOG 22 0008 SLP287 T12321280 =
2019-01-19 08:00 METAR CWRK 190800Z AUTO 04006KT M23/M28 RMK AO1 SOG 22 3016 SLP288 T12261276 =

Support USWX by starting your Amazon purchase here.